Time;durP1;ratioP1;P1;durP2;ratioP2;P2;SDS_P1;SDS_P2;PMS_P1;PMS_P2;Temp;Humidity;BMP_temperature;BMP_pressure;BME280_temperature;BME280_humidity;BME280_pressure;Samples;Min_cycle;Max_cycle;Signal;HPM_P1;HPM_P2
2021/04/11 00:02:08;;;;;;;85.53;71.05;;;;;;;8.08;65.81;100515.97;122098;1155;22544;-76
2021/04/11 00:04:40;;;;;;;82.75;68.53;;;;;;;8.02;65.58;100514.74;121747;1156;22710;-74
2021/04/11 00:07:10;;;;;;;87.85;71.63;;;;;;;7.97;65.58;100517.00;122090;1155;22534;-74
2021/04/11 00:09:42;;;;;;;90.97;71.50;;;;;;;7.90;65.54;100515.94;122160;1153;22562;-74
2021/04/11 00:12:13;;;;;;;93.00;75.63;;;;;;;7.86;66.14;100507.48;122148;1155;22554;-74
2021/04/11 00:14:42;;;;;;;90.65;72.73;;;;;;;7.86;65.80;100511.92;122124;1153;22861;-74
2021/04/11 00:17:12;;;;;;;90.80;76.33;;;;;;;7.84;66.10;100504.19;122125;1155;23250;-74
2021/04/11 00:19:41;;;;;;;93.53;78.55;;;;;;;7.82;66.08;100503.50;121657;1158;23104;-74
2021/04/11 00:22:10;;;;;;;101.88;78.75;;;;;;;7.78;66.00;100500.33;121675;1158;22575;-75
2021/04/11 00:24:40;;;;;;;107.73;85.75;;;;;;;7.77;66.23;100497.86;121581;1157;22582;-74
2021/04/11 00:27:10;;;;;;;108.75;84.43;;;;;;;7.72;66.06;100497.45;121520;1155;24722;-75
2021/04/11 00:29:44;;;;;;;108.05;89.25;;;;;;;7.68;65.97;100504.81;121679;1155;22623;-74
2021/04/11 00:32:16;;;;;;;104.50;90.22;;;;;;;7.64;66.27;100508.70;121548;1155;23220;-75
2021/04/11 00:34:45;;;;;;;118.08;91.88;;;;;;;7.60;66.34;100511.75;121565;1158;22577;-75
2021/04/11 00:37:14;;;;;;;113.35;90.90;;;;;;;7.57;66.29;100504.18;121250;1159;26781;-75
2021/04/11 00:39:44;;;;;;;118.05;94.70;;;;;;;7.52;66.48;100501.97;121125;1159;24121;-74
2021/04/11 00:42:38;;;;;;;124.35;94.78;;;;;;;7.52;66.79;100500.16;121116;1158;23365;-75
2021/04/11 00:45:10;;;;;;;124.20;97.60;;;;;;;7.54;66.91;100503.48;121195;1158;23593;-75
2021/04/11 00:47:49;;;;;;;123.28;93.88;;;;;;;7.53;66.78;100504.47;121164;1158;23435;-75
2021/04/11 00:50:19;;;;;;;133.40;96.93;;;;;;;7.50;66.70;100496.05;121174;1161;22592;-76
2021/04/11 00:52:52;;;;;;;121.88;96.53;;;;;;;7.49;66.78;100492.56;121177;1158;22580;-75
2021/04/11 00:55:27;;;;;;;129.53;99.77;;;;;;;7.53;67.22;100498.36;121184;1159;22628;-76
2021/04/11 00:57:59;;;;;;;126.10;99.10;;;;;;;7.57;67.00;100493.66;121338;1159;25301;-76
2021/04/11 01:00:33;;;;;;;124.05;97.65;;;;;;;7.60;67.13;100488.09;121557;1157;22952;-75
2021/04/11 01:03:07;;;;;;;120.25;96.50;;;;;;;7.62;67.05;100486.98;121772;1153;23355;-75
2021/04/11 01:05:42;;;;;;;123.70;100.05;;;;;;;7.63;66.99;100482.55;121984;1155;24512;-75
2021/04/11 01:08:23;;;;;;;121.63;95.63;;;;;;;7.65;66.96;100470.09;122053;1155;24699;-75
2021/04/11 01:11:18;;;;;;;116.13;93.93;;;;;;;7.66;66.83;100466.48;121557;1158;22609;-75
2021/04/11 01:13:52;;;;;;;110.55;93.25;;;;;;;7.67;66.86;100462.90;121595;1158;22665;-75
2021/04/11 01:16:23;;;;;;;111.88;94.80;;;;;;;7.68;66.83;100462.73;121495;1158;25240;-74
2021/04/11 01:18:56;;;;;;;121.90;96.83;;;;;;;7.68;66.63;100464.55;121564;1158;22577;-75
2021/04/11 01:22:16;;;;;;;124.43;104.47;;;;;;;7.67;66.43;100465.53;121531;1158;25195;-75
2021/04/11 01:24:56;;;;;;;124.78;99.58;;;;;;;7.57;66.75;100462.12;121512;1157;22569;-74
2021/04/11 01:27:34;;;;;;;120.60;100.00;;;;;;;7.55;66.86;100456.99;121591;1158;22565;-74
2021/04/11 01:30:23;;;;;;;124.70;102.65;;;;;;;7.53;66.79;100457.15;121713;1155;22564;-74
2021/04/11 01:32:54;;;;;;;113.13;96.88;;;;;;;7.51;66.59;100459.08;121776;1155;22577;-74
2021/04/11 01:35:27;;;;;;;108.47;89.10;;;;;;;7.51;66.71;100456.45;122041;1152;22541;-75
2021/04/11 01:37:58;;;;;;;101.93;88.18;;;;;;;7.49;66.93;100455.77;121762;1154;23446;-75
2021/04/11 01:40:54;;;;;;;93.55;80.68;;;;;;;7.46;66.95;100453.45;122071;1154;24784;-75
2021/04/11 01:43:25;;;;;;;88.18;76.60;;;;;;;7.41;66.88;100446.96;122135;1155;24763;-75
2021/04/11 01:45:57;;;;;;;86.70;76.83;;;;;;;7.39;67.06;100439.20;122116;1154;24710;-74
2021/04/11 01:48:28;;;;;;;89.50;78.75;;;;;;;7.35;66.84;100445.73;121791;1154;23288;-75
2021/04/11 01:50:57;;;;;;;94.05;80.45;;;;;;;7.33;67.05;100436.33;122009;1156;22555;-74
2021/04/11 01:53:39;;;;;;;94.63;79.53;;;;;;;7.28;66.88;100434.97;122058;1155;24528;-74
2021/04/11 01:56:11;;;;;;;89.78;77.13;;;;;;;7.26;66.94;100428.20;121691;1153;22550;-75
2021/04/11 01:58:41;;;;;;;87.33;76.50;;;;;;;7.23;67.05;100431.11;121723;1154;22547;-74
2021/04/11 02:01:30;;;;;;;93.83;78.60;;;;;;;7.22;67.19;100432.09;122110;1155;22552;-74
2021/04/11 02:04:05;;;;;;;90.58;77.75;;;;;;;7.21;67.32;100431.27;121530;1157;22626;-73
2021/04/11 02:06:45;;;;;;;97.23;79.25;;;;;;;7.20;67.51;100429.63;121631;1158;22576;-74
2021/04/11 02:09:31;;;;;;;88.45;78.73;;;;;;;7.17;67.22;100429.91;121475;1156;23111;-74
2021/04/11 02:12:16;;;;;;;86.60;76.50;;;;;;;7.14;67.29;100426.73;121551;1158;22622;-74
2021/04/11 02:14:46;;;;;;;87.50;76.78;;;;;;;7.13;67.39;100428.55;121582;1158;22563;-74
2021/04/11 02:17:17;;;;;;;84.08;74.80;;;;;;;7.12;67.20;100424.23;121644;1156;22635;-75
2021/04/11 02:19:52;;;;;;;92.47;75.80;;;;;;;7.10;67.21;100420.09;121257;1158;22635;-74
2021/04/11 02:22:29;;;;;;;76.40;68.00;;;;;;;7.06;67.38;100415.16;121346;1158;22652;-76
2021/04/11 02:25:08;;;;;;;78.93;68.03;;;;;;;7.02;67.43;100410.31;121153;1161;22577;-74
2021/04/11 02:27:38;;;;;;;78.20;67.65;;;;;;;7.00;67.33;100415.72;121204;1159;22589;-74
2021/04/11 02:30:12;;;;;;;75.43;66.38;;;;;;;6.97;67.37;100402.88;121199;1160;22754;-75
2021/04/11 02:32:42;;;;;;;78.23;67.23;;;;;;;6.96;67.34;100401.20;121162;1161;22592;-75
2021/04/11 02:35:24;;;;;;;76.63;68.18;;;;;;;6.94;67.47;100404.96;121194;1159;22681;-75
2021/04/11 02:38:00;;;;;;;76.67;65.30;;;;;;;6.91;67.25;100411.31;121292;1158;22585;-75
2021/04/11 02:40:36;;;;;;;72.00;62.20;;;;;;;6.91;67.44;100400.81;121530;1157;22580;-74
2021/04/11 02:43:12;;;;;;;72.75;61.10;;;;;;;6.88;67.21;100411.60;121732;1155;22659;-76
2021/04/11 02:45:46;;;;;;;73.45;63.55;;;;;;;6.89;67.09;100415.88;122108;1155;22667;-76
2021/04/11 02:48:17;;;;;;;69.50;61.08;;;;;;;6.89;66.67;100420.30;122113;1154;22573;-75
2021/04/11 02:50:57;;;;;;;77.28;65.03;;;;;;;6.87;66.97;100412.58;121505;1156;22560;-75
2021/04/11 02:53:34;;;;;;;72.10;63.33;;;;;;;6.86;66.96;100415.33;121341;1156;22866;-75
2021/04/11 02:56:06;;;;;;;72.63;64.93;;;;;;;6.81;66.83;100416.59;121222;1159;22649;-75
2021/04/11 02:58:38;;;;;;;74.63;64.40;;;;;;;6.77;66.92;100403.90;120900;1164;22608;-75
2021/04/11 03:01:14;;;;;;;78.13;69.53;;;;;;;6.71;66.94;100401.84;120970;1162;22609;-75
2021/04/11 03:03:43;;;;;;;76.63;68.23;;;;;;;6.68;67.00;100402.94;121049;1161;24501;-75
2021/04/11 03:06:21;;;;;;;77.60;68.30;;;;;;;6.66;67.02;100398.80;120904;1163;22612;-74
2021/04/11 03:08:57;;;;;;;74.53;65.07;;;;;;;6.65;66.93;100408.47;120844;1161;22601;-73
2021/04/11 03:11:42;;;;;;;79.50;68.67;;;;;;;6.62;67.20;100407.92;120682;1165;22600;-74
2021/04/11 03:14:15;;;;;;;76.18;67.83;;;;;;;6.59;67.32;100412.48;121066;1161;23093;-73
2021/04/11 03:16:46;;;;;;;77.28;69.00;;;;;;;6.55;67.32;100411.11;121135;1158;22558;-73
2021/04/11 03:19:25;;;;;;;76.68;68.30;;;;;;;6.54;67.07;100412.08;121211;1158;22560;-74
2021/04/11 03:21:55;;;;;;;80.35;69.88;;;;;;;6.53;67.26;100413.06;121265;1158;22598;-74
2021/04/11 03:24:24;;;;;;;81.83;69.68;;;;;;;6.51;67.09;100414.98;121183;1158;22565;-73
2021/04/11 03:27:13;;;;;;;82.88;71.33;;;;;;;6.48;67.26;100415.27;121174;1158;23066;-74
2021/04/11 03:29:53;;;;;;;76.90;68.60;;;;;;;6.43;67.53;100420.12;121288;1158;25071;-73
2021/04/11 03:32:30;;;;;;;78.85;70.80;;;;;;;6.40;67.29;100414.29;121526;1158;22673;-73
2021/04/11 03:35:05;;;;;;;80.53;71.90;;;;;;;6.37;67.41;100415.42;121413;1159;22575;-74
2021/04/11 03:37:37;;;;;;;77.45;69.25;;;;;;;6.33;67.31;100414.02;121533;1158;22570;-74
2021/04/11 03:40:12;;;;;;;76.93;68.80;;;;;;;6.30;67.52;100417.77;121493;1158;22587;-73
2021/04/11 03:42:50;;;;;;;75.05;67.00;;;;;;;6.31;67.39;100416.80;121236;1158;24474;-74
2021/04/11 03:45:20;;;;;;;73.38;65.28;;;;;;;6.32;67.58;100422.86;121119;1158;22577;-73
2021/04/11 03:48:00;;;;;;;75.07;67.03;;;;;;;6.30;67.64;100432.69;121107;1158;23616;-74
2021/04/11 03:50:39;;;;;;;77.48;67.10;;;;;;;6.25;68.13;100419.97;120965;1161;22586;-74
2021/04/11 03:53:19;;;;;;;76.00;67.83;;;;;;;6.22;67.55;100422.04;120887;1161;23035;-74
2021/04/11 03:55:59;;;;;;;76.85;68.55;;;;;;;6.19;67.70;100415.27;121182;1161;24493;-73
2021/04/11 03:58:35;;;;;;;76.00;67.37;;;;;;;6.18;67.44;100418.86;120949;1161;24673;-74
2021/04/11 04:01:19;;;;;;;73.85;65.50;;;;;;;6.16;67.53;100417.34;120923;1164;22589;-74
2021/04/11 04:03:52;;;;;;;77.90;65.35;;;;;;;6.15;67.73;100413.06;120914;1161;24735;-74
2021/04/11 04:06:31;;;;;;;74.70;63.83;;;;;;;6.14;67.62;100414.87;121078;1162;22600;-73
2021/04/11 04:09:00;;;;;;;80.00;65.53;;;;;;;6.15;67.84;100411.27;121145;1159;24732;-74
2021/04/11 04:12:14;;;;;;;77.50;64.60;;;;;;;6.18;67.69;100402.30;121326;1158;24706;-74
2021/04/11 04:15:04;;;;;;;;;;;;;;;6.14;67.78;100404.38;121565;1159;23154;-74
2021/04/11 04:18:19;;;;;;;85.95;70.60;;;;;;;6.08;67.95;100395.25;121535;1158;21362;-74
2021/04/11 04:21:13;;;;;;;85.28;71.93;;;;;;;6.10;67.98;100397.75;121569;1155;22626;-74
2021/04/11 04:24:04;;;;;;;89.13;75.00;;;;;;;6.15;68.20;100392.08;121842;1154;22554;-73
2021/04/11 04:26:45;;;;;;;84.70;70.78;;;;;;;6.20;68.24;100389.86;121527;1155;22661;-74
2021/04/11 04:29:17;;;;;;;86.35;70.63;;;;;;;6.24;67.94;100396.50;121479;1158;22570;-74
2021/04/11 04:32:01;;;;;;;77.05;68.20;;;;;;;6.27;68.02;100388.36;121447;1159;24474;-74
2021/04/11 04:35:24;;;;;;;;;;;;;;;;;;;;;
2021/04/11 04:38:26;;;;;;;76.10;64.73;;;;;;;6.33;67.94;100380.77;121130;1160;22632;-74
2021/04/11 04:41:21;;;;;;;71.53;62.47;;;;;;;6.40;67.93;100391.53;120860;1162;22608;-74
2021/04/11 04:43:56;;;;;;;72.20;61.23;;;;;;;6.49;68.56;100377.55;120720;1164;22618;-74
2021/04/11 04:46:49;;;;;;;69.93;60.50;;;;;;;6.58;67.89;100381.13;120864;1164;22676;-75
2021/04/11 04:49:36;;;;;;;69.23;60.60;;;;;;;6.65;67.91;100379.59;120598;1168;25245;-74
2021/04/11 04:52:15;;;;;;;72.70;63.70;;;;;;;6.71;67.83;100375.58;120656;1164;22602;-75
2021/04/11 04:54:54;;;;;;;70.80;61.47;;;;;;;6.77;67.43;100375.02;121047;1162;22601;-75
2021/04/11 04:57:57;;;;;;;74.60;63.08;;;;;;;6.85;67.04;100385.63;120920;1162;22598;-74
2021/04/11 05:00:37;;;;;;;71.23;61.13;;;;;;;6.96;67.32;100377.56;120891;1162;22612;-74
2021/04/11 05:03:36;;;;;;;69.43;60.60;;;;;;;7.05;67.20;100383.76;120937;1161;25438;-75
2021/04/11 05:06:38;;;;;;;67.53;58.75;;;;;;;7.20;67.01;100384.13;121082;1161;22582;-74
2021/04/11 05:09:40;;;;;;;72.98;58.63;;;;;;;7.34;66.99;100375.76;121130;1161;22598;-75
2021/04/11 05:12:57;;;;;;;66.53;57.07;;;;;;;7.51;66.78;100382.03;121110;1161;22661;-75
2021/04/11 05:15:41;;;;;;;68.15;58.05;;;;;;;7.66;66.47;100377.08;121106;1160;22602;-76
2021/04/11 05:18:44;;;;;;;62.75;52.18;;;;;;;7.75;65.75;100384.91;121161;1161;22604;-75
2021/04/11 05:21:30;;;;;;;64.88;53.23;;;;;;;7.85;65.51;100379.59;121188;1160;22601;-75
2021/04/11 05:24:26;;;;;;;60.15;53.55;;;;;;;7.96;65.18;100375.91;121210;1159;23149;-76
2021/04/11 05:27:08;;;;;;;60.58;53.55;;;;;;;8.13;65.16;100380.36;121334;1158;22572;-75
2021/04/11 05:30:13;;;;;;;61.83;47.40;;;;;;;8.24;64.28;100385.38;121098;1159;22580;-75
2021/04/11 05:32:43;;;;;;;54.53;45.60;;;;;;;8.30;64.07;100383.95;121180;1159;22592;-75
2021/04/11 05:35:12;;;;;;;52.10;45.00;;;;;;;8.38;63.59;100381.41;121129;1161;22630;-75
2021/04/11 05:38:11;;;;;;;53.70;47.05;;;;;;;8.48;63.47;100387.41;121211;1159;22756;-75
2021/04/11 05:41:07;;;;;;;52.88;45.18;;;;;;;8.57;62.91;100382.22;121200;1161;24682;-74
2021/04/11 05:43:55;;;;;;;52.15;43.20;;;;;;;8.68;62.62;100381.95;121141;1158;24773;-75
2021/04/11 05:46:57;;;;;;;55.50;44.98;;;;;;;8.83;62.03;100376.92;121465;1158;24709;-75
2021/04/11 05:49:49;;;;;;;47.65;41.45;;;;;;;9.03;61.98;100383.66;121474;1158;22568;-75
2021/04/11 05:52:30;;;;;;;52.28;43.85;;;;;;;9.32;61.86;100390.36;121489;1158;22562;-76
2021/04/11 05:55:03;;;;;;;49.90;42.10;;;;;;;9.69;61.17;100378.61;121609;1158;23026;-76
2021/04/11 05:57:43;;;;;;;47.13;40.45;;;;;;;10.01;59.64;100380.48;121457;1158;24473;-74
2021/04/11 06:00:26;;;;;;;45.60;39.23;;;;;;;10.31;59.18;100382.52;121876;1152;22637;-77
2021/04/11 06:03:03;;;;;;;50.97;40.40;;;;;;;10.59;58.19;100382.16;121719;1155;22540;-74
2021/04/11 06:06:11;;;;;;;47.60;38.28;;;;;;;10.86;57.50;100380.13;122082;1155;22572;-75
2021/04/11 06:08:55;;;;;;;46.97;37.97;;;;;;;11.22;57.20;100389.27;122186;1153;22749;-74
2021/04/11 06:11:57;;;;;;;45.63;38.68;;;;;;;11.53;55.92;100377.92;122080;1155;22549;-75
2021/04/11 06:15:07;;;;;;;97.55;72.45;;;;;;;11.80;55.00;100381.91;122126;1153;24689;-75
2021/04/11 06:17:46;;;;;;;212.25;133.78;;;;;;;12.07;53.92;100382.42;122086;1153;22956;-75
2021/04/11 06:20:25;;;;;;;76.38;51.58;;;;;;;12.29;53.43;100392.16;122070;1155;22640;-75
2021/04/11 06:23:44;;;;;;;61.68;44.15;;;;;;;12.50;52.65;100383.55;122037;1155;22650;-74
2021/04/11 06:26:44;;;;;;;73.85;48.50;;;;;;;12.86;52.30;100382.86;122085;1155;23446;-76
2021/04/11 06:29:22;;;;;;;45.08;34.15;;;;;;;13.19;51.47;100384.17;122027;1155;23514;-75
2021/04/11 06:32:18;;;;;;;58.17;38.47;;;;;;;13.51;50.69;100382.13;122087;1155;22677;-75
2021/04/11 06:35:06;;;;;;;44.75;34.98;;;;;;;13.83;50.14;100375.56;122063;1155;22573;-75
2021/04/11 06:37:46;;;;;;;44.15;33.75;;;;;;;14.08;48.85;100375.18;122062;1155;22570;-75
2021/04/11 06:40:41;;;;;;;42.53;31.23;;;;;;;14.26;47.87;100372.91;122061;1155;22667;-75
2021/04/11 06:44:03;;;;;;;45.40;33.10;;;;;;;14.53;47.79;100365.18;122091;1155;22550;-75
2021/04/11 06:47:31;;;;;;;41.70;32.88;;;;;;;14.68;46.99;100368.55;121821;1155;22603;-75
2021/04/11 06:50:44;;;;;;;40.65;31.23;;;;;;;14.75;46.22;100358.77;121552;1158;23492;-73
2021/04/11 06:54:09;;;;;;;36.70;29.15;;;;;;;14.75;45.83;100358.77;121506;1158;22577;-75
2021/04/11 06:56:53;;;;;;;38.70;30.98;;;;;;;14.82;46.09;100358.81;121588;1158;22663;-75
2021/04/11 06:59:27;;;;;;;29.38;25.40;;;;;;;14.86;45.82;100354.77;121547;1159;22567;-78
2021/04/11 07:02:45;;;;;;;31.27;26.97;;;;;;;15.05;45.91;100346.05;121513;1158;22575;-76
2021/04/11 07:06:14;;;;;;;34.43;25.10;;;;;;;15.31;45.60;100355.19;121525;1159;25308;-77
2021/04/11 07:09:20;;;;;;;31.63;25.25;;;;;;;15.50;44.66;100351.78;121591;1158;22584;-78
2021/04/11 07:12:15;;;;;;;28.35;21.83;;;;;;;15.67;43.96;100340.80;121593;1158;22958;-77
2021/04/11 07:15:09;;;;;;;29.88;21.68;;;;;;;15.49;42.81;100347.48;121390;1159;24558;-76
2021/04/11 07:18:20;;;;;;;37.07;27.33;;;;;;;15.52;43.29;100341.73;121615;1157;22576;-77
2021/04/11 07:21:38;;;;;;;27.80;19.40;;;;;;;15.79;43.29;100341.02;121888;1156;24793;-77
2021/04/11 07:25:12;;;;;;;22.80;18.53;;;;;;;16.02;42.80;100348.64;122055;1156;25225;-79
2021/04/11 07:28:18;;;;;;;26.57;17.70;;;;;;;16.12;41.60;100341.88;121551;1158;22566;-77
2021/04/11 07:31:32;;;;;;;23.25;16.05;;;;;;;16.29;41.24;100347.62;121582;1158;22590;-79
2021/04/11 07:34:38;;;;;;;27.47;18.40;;;;;;;16.36;40.49;100337.80;121520;1159;22744;-78
2021/04/11 07:37:32;;;;;;;18.03;14.15;;;;;;;16.69;40.85;100344.92;121502;1158;23284;-78
2021/04/11 07:40:29;;;;;;;20.78;14.28;;;;;;;17.10;39.94;100352.66;121506;1158;24752;-76
2021/04/11 07:43:48;;;;;;;17.55;12.28;;;;;;;17.48;38.52;100348.40;121606;1158;22569;-77
2021/04/11 07:46:59;;;;;;;17.60;12.10;;;;;;;17.76;38.27;100335.55;121595;1159;22588;-76
2021/04/11 07:49:54;;;;;;;18.35;11.78;;;;;;;17.99;37.69;100339.48;121173;1161;22901;-75
2021/04/11 07:52:55;;;;;;;19.10;12.75;;;;;;;18.24;37.48;100336.84;121193;1161;22704;-77
2021/04/11 07:56:11;;;;;;;20.78;13.68;;;;;;;18.55;37.01;100338.61;121164;1160;22604;-75
2021/04/11 07:59:29;;;;;;;21.33;14.85;;;;;;;18.96;36.34;100345.21;121213;1161;22760;-77
2021/04/11 08:02:19;;;;;;;18.83;12.83;;;;;;;19.16;35.45;100343.15;121241;1161;22646;-76
2021/04/11 08:05:27;;;;;;;15.73;11.68;;;;;;;19.29;35.36;100350.18;121029;1161;23132;-77
2021/04/11 08:08:48;;;;;;;21.77;13.28;;;;;;;19.30;34.99;100338.45;120964;1163;22599;-77
2021/04/11 08:11:52;;;;;;;18.40;12.73;;;;;;;19.71;34.79;100343.06;120977;1161;23152;-77
2021/04/11 08:15:06;;;;;;;18.63;12.60;;;;;;;19.81;34.09;100336.34;121039;1161;22572;-77
2021/04/11 08:18:01;;;;;;;13.27;9.20;;;;;;;19.87;33.60;100341.60;120999;1164;22585;-77
2021/04/11 08:20:59;;;;;;;16.13;9.55;;;;;;;19.94;33.17;100323.55;121014;1164;22581;-77
2021/04/11 08:24:06;;;;;;;78.28;54.68;;;;;;;20.20;32.94;100326.86;121187;1161;22583;-79
2021/04/11 08:27:10;;;;;;;19.70;11.58;;;;;;;20.27;31.90;100324.07;121530;1156;22544;-77
2021/04/11 08:29:56;;;;;;;13.83;8.10;;;;;;;20.32;31.56;100311.58;122107;1155;24396;-77
2021/04/11 08:32:47;;;;;;;15.60;8.37;;;;;;;20.42;31.54;100308.31;122130;1154;23489;-75
2021/04/11 08:35:46;;;;;;;15.58;7.40;;;;;;;20.44;31.10;100304.35;122093;1154;24429;-76
2021/04/11 08:38:51;;;;;;;10.95;7.08;;;;;;;20.60;30.60;100302.05;121578;1156;22639;-76
2021/04/11 08:41:51;;;;;;;9.83;5.35;;;;;;;20.74;29.81;100297.25;121640;1156;22661;-76
2021/04/11 08:44:56;;;;;;;13.50;8.50;;;;;;;20.95;29.74;100293.11;121679;1158;22578;-77
2021/04/11 08:48:16;;;;;;;16.38;7.23;;;;;;;21.32;30.14;100289.00;121735;1158;24466;-77
2021/04/11 08:51:11;;;;;;;9.83;6.08;;;;;;;21.66;29.05;100288.29;121745;1157;23616;-78
2021/04/11 08:54:25;;;;;;;11.30;7.73;;;;;;;21.92;29.20;100287.66;121361;1158;22676;-75
2021/04/11 08:57:15;;;;;;;11.60;6.53;;;;;;;21.94;28.13;100284.74;121558;1158;22635;-76
2021/04/11 09:00:21;;;;;;;8.45;6.03;;;;;;;21.70;27.85;100284.89;121653;1158;22594;-75
2021/04/11 09:04:01;;;;;;;9.18;6.03;;;;;;;21.21;27.99;100281.81;121654;1156;22602;-76
2021/04/11 09:06:59;;;;;;;10.58;5.88;;;;;;;21.04;28.21;100281.76;121665;1156;22700;-75
2021/04/11 09:10:13;;;;;;;9.58;6.38;;;;;;;20.96;28.34;100283.98;121728;1155;22566;-75
2021/04/11 09:13:18;;;;;;;9.35;6.15;;;;;;;21.09;28.37;100273.81;121990;1155;22661;-76
2021/04/11 09:16:18;;;;;;;14.38;7.00;;;;;;;21.30;28.11;100279.58;122009;1155;22550;-75
2021/04/11 09:19:16;;;;;;;7.65;5.70;;;;;;;21.35;27.42;100264.38;121704;1157;22570;-75
2021/04/11 09:22:40;;;;;;;10.63;6.03;;;;;;;21.28;27.26;100266.36;121695;1155;24722;-79
2021/04/11 09:25:22;;;;;;;9.85;4.88;;;;;;;21.45;26.68;100250.30;121603;1155;22694;-76
2021/04/11 09:28:42;;;;;;;8.83;4.98;;;;;;;21.38;26.46;100253.14;121667;1155;24796;-75
2021/04/11 09:31:32;;;;;;;9.75;5.28;;;;;;;21.29;26.83;100251.89;121655;1155;22546;-75
2021/04/11 09:34:34;;;;;;;13.30;6.38;;;;;;;21.51;26.86;100243.97;121565;1156;22569;-75
2021/04/11 09:37:51;;;;;;;8.68;6.05;;;;;;;21.52;26.20;100234.03;121811;1155;23143;-75
2021/04/11 09:41:09;;;;;;;7.78;4.80;;;;;;;21.56;26.69;100235.20;121781;1157;22576;-75
2021/04/11 09:44:02;;;;;;;11.55;6.40;;;;;;;21.47;26.79;100229.39;122077;1155;22640;-75
2021/04/11 09:46:59;;;;;;;14.10;6.93;;;;;;;21.56;26.60;100219.88;122103;1155;23762;-74
2021/04/11 09:50:07;;;;;;;7.43;4.63;;;;;;;21.82;26.48;100222.96;122064;1155;22562;-74
2021/04/11 09:53:51;;;;;;;12.98;6.60;;;;;;;22.07;26.38;100220.66;121586;1156;22556;-75
2021/04/11 09:56:28;;;;;;;10.13;5.70;;;;;;;22.15;25.66;100223.99;121072;1159;22642;-73
2021/04/11 09:59:41;;;;;;;12.95;8.43;;;;;;;22.20;26.01;100207.97;121136;1160;22592;-74
2021/04/11 10:02:50;;;;;;;10.68;7.00;;;;;;;22.19;25.30;100206.31;120934;1161;25416;-74
2021/04/11 10:06:05;;;;;;;14.35;7.40;;;;;;;21.71;25.66;100199.67;120744;1164;22746;-75
2021/04/11 10:08:48;;;;;;;7.50;5.00;;;;;;;21.43;26.56;100197.88;120771;1164;22722;-75
2021/04/11 10:12:01;;;;;;;6.83;4.10;;;;;;;21.40;25.51;100201.86;120910;1162;24514;-75
2021/04/11 10:15:01;;;;;;;7.60;5.70;;;;;;;21.66;25.40;100202.27;120849;1162;22619;-75
2021/04/11 10:18:15;;;;;;;9.55;4.33;;;;;;;21.64;24.86;100210.59;120900;1164;23476;-74
2021/04/11 10:21:19;;;;;;;7.43;4.70;;;;;;;21.64;25.23;100199.84;121025;1161;24734;-75
2021/04/11 10:24:38;;;;;;;10.97;5.17;;;;;;;21.67;25.76;100207.41;120993;1162;22592;-74
2021/04/11 10:27:25;;;;;;;11.95;6.50;;;;;;;21.76;26.24;100197.89;121315;1158;22582;-73
2021/04/11 10:30:01;;;;;;;7.35;4.65;;;;;;;21.74;26.07;100194.62;121203;1161;24121;-74
2021/04/11 10:32:59;;;;;;;8.68;4.70;;;;;;;21.75;25.67;100196.23;121167;1158;24456;-76
2021/04/11 10:36:04;;;;;;;10.28;5.95;;;;;;;21.68;25.99;100194.78;121132;1160;23056;-75
2021/04/11 10:38:59;;;;;;;9.57;5.47;;;;;;;21.50;26.01;100193.97;121018;1161;22660;-74
2021/04/11 10:41:44;;;;;;;8.48;4.68;;;;;;;21.38;26.12;100206.66;121054;1161;22770;-74
2021/04/11 10:44:46;;;;;;;5.73;3.73;;;;;;;21.15;26.18;100176.13;121230;1158;22587;-74
2021/04/11 10:48:18;;;;;;;8.10;3.80;;;;;;;21.15;26.79;100170.76;121214;1156;22674;-75
2021/04/11 10:51:08;;;;;;;7.90;4.45;;;;;;;21.12;27.08;100165.06;121301;1158;22595;-76
2021/04/11 10:54:11;;;;;;;6.13;3.75;;;;;;;21.16;26.59;100160.86;121480;1158;24747;-75
2021/04/11 10:57:01;;;;;;;12.07;4.20;;;;;;;21.03;26.43;100169.22;121297;1158;22561;-75
2021/04/11 11:00:08;;;;;;;11.48;3.83;;;;;;;20.86;26.19;100150.38;121644;1156;24540;-76
2021/04/11 11:03:38;;;;;;;5.75;3.93;;;;;;;20.70;26.76;100151.95;121548;1155;22548;-75
2021/04/11 11:06:15;;;;;;;9.83;3.23;;;;;;;20.44;26.85;100159.47;121194;1161;22920;-75
2021/04/11 11:09:25;;;;;;;;;;;;;;;20.20;26.80;100158.70;121336;1161;24461;-74
2021/04/11 11:12:13;;;;;;;7.38;3.33;;;;;;;20.05;27.50;100146.83;121621;1158;21350;-75
2021/04/11 11:15:19;;;;;;;12.63;6.78;;;;;;;20.07;27.77;100150.91;121564;1158;22567;-75
2021/04/11 11:18:12;;;;;;;12.18;7.33;;;;;;;20.03;27.61;100149.75;121530;1158;22578;-74
2021/04/11 11:20:59;;;;;;;7.17;3.80;;;;;;;20.03;27.57;100154.31;121549;1157;24711;-75
2021/04/11 11:23:45;;;;;;;6.55;3.60;;;;;;;19.97;27.48;100153.37;121202;1159;23532;-75
2021/04/11 11:26:34;;;;;;;8.65;3.85;;;;;;;19.90;27.88;100158.85;121190;1159;22576;-74
2021/04/11 11:29:24;;;;;;;6.10;3.40;;;;;;;19.77;27.69;100134.15;121088;1161;22579;-74
2021/04/11 11:32:26;;;;;;;8.97;4.40;;;;;;;19.52;28.02;100130.59;121145;1161;23041;-74
2021/04/11 11:35:08;;;;;;;;;;;;;;;19.29;28.19;100133.24;120965;1165;22588;-75
2021/04/11 11:38:09;;;;;;;9.73;3.88;;;;;;;19.21;28.30;100142.44;121151;1161;23882;-74
2021/04/11 11:41:08;;;;;;;6.13;3.53;;;;;;;19.25;28.70;100140.11;121111;1161;24742;-73
2021/04/11 11:44:09;;;;;;;9.55;4.60;;;;;;;19.36;28.41;100142.02;120889;1161;22624;-75
2021/04/11 11:47:06;;;;;;;10.20;3.90;;;;;;;19.45;28.83;100129.89;120940;1161;23018;-74
2021/04/11 11:50:03;;;;;;;14.45;4.10;;;;;;;19.40;28.46;100142.37;121059;1161;22598;-75
2021/04/11 11:53:08;;;;;;;11.70;4.23;;;;;;;19.40;28.73;100140.50;120874;1161;22589;-74
2021/04/11 11:55:54;;;;;;;10.77;4.67;;;;;;;19.35;29.23;100139.55;120681;1166;23646;-73
2021/04/11 11:58:28;;;;;;;5.75;3.30;;;;;;;19.33;28.99;100133.63;120866;1164;23253;-74
2021/04/11 12:01:11;;;;;;;7.10;3.27;;;;;;;19.34;28.79;100135.25;120687;1164;22617;-74
2021/04/11 12:03:40;;;;;;;8.03;4.15;;;;;;;19.37;29.22;100137.47;120962;1164;24757;-74
2021/04/11 12:06:29;;;;;;;7.55;3.60;;;;;;;19.42;29.10;100132.22;120918;1164;22623;-74
2021/04/11 12:09:29;;;;;;;5.43;3.20;;;;;;;19.42;29.34;100135.71;120875;1164;22585;-75
2021/04/11 12:12:21;;;;;;;6.78;2.70;;;;;;;19.28;29.20;100129.75;120863;1164;22683;-74
2021/04/11 12:15:23;;;;;;;8.15;2.45;;;;;;;19.23;29.48;100135.00;121071;1161;24751;-73
2021/04/11 12:18:09;;;;;;;7.85;2.75;;;;;;;19.15;29.23;100131.83;120962;1163;24569;-74
2021/04/11 12:21:11;;;;;;;5.08;2.50;;;;;;;19.13;29.53;100132.07;120959;1158;22609;-74
2021/04/11 12:24:15;;;;;;;10.75;3.25;;;;;;;19.16;29.92;100123.58;121209;1159;24469;-74
2021/04/11 12:27:03;;;;;;;7.10;3.03;;;;;;;19.18;30.33;100129.50;121260;1158;22570;-74
2021/04/11 12:29:39;;;;;;;6.35;3.45;;;;;;;19.18;29.85;100129.50;121559;1158;22654;-76
2021/04/11 12:32:35;;;;;;;5.90;3.00;;;;;;;19.22;30.28;100129.86;121175;1158;24734;-74
2021/04/11 12:35:31;;;;;;;6.23;3.33;;;;;;;19.28;30.73;100137.78;121187;1158;22586;-75
2021/04/11 12:38:30;;;;;;;5.55;2.90;;;;;;;19.28;30.27;100129.75;121563;1158;23381;-74
2021/04/11 12:41:28;;;;;;;5.85;3.28;;;;;;;19.39;30.15;100135.36;121199;1158;22579;-74
2021/04/11 12:44:17;;;;;;;5.60;3.00;;;;;;;19.41;30.20;100127.92;121276;1161;22638;-74
2021/04/11 12:47:14;;;;;;;10.77;5.27;;;;;;;19.34;30.34;100127.22;121150;1161;22578;-74
2021/04/11 12:50:25;;;;;;;6.10;3.60;;;;;;;19.31;30.51;100130.35;121283;1158;25003;-74
2021/04/11 12:53:28;;;;;;;8.03;3.47;;;;;;;19.21;30.71;100137.08;121505;1158;24718;-74
2021/04/11 12:56:06;;;;;;;6.03;2.75;;;;;;;19.11;30.59;100127.98;121211;1160;25855;-74